createdAt,value
2017-09-20T14:53:14.156Z,400
2017-09-20T14:53:27.512Z,400
2017-09-20T14:53:40.896Z,400
2017-09-20T14:53:53.719Z,400
2017-09-20T14:54:06.581Z,400
2017-09-20T14:54:19.956Z,400
2017-09-20T14:54:33.775Z,405
2017-09-20T14:54:47.361Z,400
2017-09-20T14:55:00.193Z,405
2017-09-20T14:55:13.550Z,405
2017-09-20T14:55:26.936Z,410
2017-09-20T14:55:39.794Z,405
2017-09-20T14:55:52.595Z,410
2017-09-20T14:56:05.461Z,405
2017-09-20T14:56:17.861Z,405
2017-09-20T14:56:31.240Z,410
2017-09-20T14:56:44.675Z,405
2017-09-20T14:56:58.086Z,405
2017-09-20T14:57:10.381Z,405
2017-09-20T14:57:23.211Z,405
2017-09-20T14:57:36.072Z,405
2017-09-20T14:57:48.937Z,405
2017-09-20T14:58:02.280Z,405
2017-09-20T14:58:15.087Z,410
2017-09-20T14:58:27.436Z,410
2017-09-20T14:58:39.750Z,410
2017-09-20T14:58:52.608Z,410
2017-09-20T14:59:05.467Z,410
2017-09-20T14:59:17.810Z,410
2017-09-20T14:59:31.195Z,405
2017-09-20T14:59:44.042Z,405
2017-09-20T14:59:57.436Z,405
2017-09-20T15:00:10.829Z,400
2017-09-20T15:00:23.711Z,410
2017-09-20T15:00:36.601Z,410
2017-09-20T15:00:49.424Z,405
2017-09-20T15:01:02.768Z,405
2017-09-20T15:01:15.645Z,405
2017-09-20T15:01:29.014Z,405
2017-09-20T15:01:41.850Z,405
2017-09-20T15:01:54.719Z,405
2017-09-20T15:02:08.059Z,405
2017-09-20T15:02:19.805Z,405
2017-09-20T15:02:32.690Z,405
2017-09-20T15:02:45.584Z,405
2017-09-20T15:02:58.937Z,405
2017-09-20T15:03:12.350Z,405
2017-09-20T15:03:25.154Z,400
2017-09-20T15:03:38.516Z,405
2017-09-20T15:03:51.872Z,405
2017-09-20T15:04:05.272Z,405
2017-09-20T15:04:17.629Z,400
2017-09-20T15:04:30.480Z,400
2017-09-20T15:04:43.322Z,400
2017-09-20T15:04:55.626Z,405
2017-09-20T15:05:08.506Z,400
2017-09-20T15:05:21.917Z,400
2017-09-20T15:05:35.370Z,400
2017-09-20T15:05:48.196Z,400
2017-09-20T15:06:01.048Z,400
2017-09-20T15:06:13.899Z,400
2017-09-20T15:06:27.314Z,400
2017-09-20T15:06:40.174Z,400
2017-09-20T15:06:53.071Z,400
2017-09-20T15:07:05.962Z,400
2017-09-20T15:07:19.344Z,400
2017-09-20T15:07:32.201Z,400
2017-09-20T15:07:45.051Z,400
2017-09-20T15:07:57.921Z,395
2017-09-20T15:08:10.238Z,395
2017-09-20T15:08:23.091Z,395
2017-09-20T15:08:35.928Z,395
2017-09-20T15:08:49.304Z,395
2017-09-20T15:09:02.186Z,395
2017-09-20T15:09:14.571Z,395
2017-09-20T15:09:27.386Z,395
2017-09-20T15:09:40.273Z,395
2017-09-20T15:09:53.204Z,395
2017-09-20T15:10:06.022Z,395
2017-09-20T15:10:18.395Z,395
2017-09-20T15:10:31.819Z,400
2017-09-20T15:10:45.297Z,400
2017-09-20T15:10:58.652Z,400
2017-09-20T15:11:11.518Z,400
2017-09-20T15:11:24.419Z,395
2017-09-20T15:11:37.781Z,400
2017-09-20T15:11:50.086Z,400
2017-09-20T15:12:02.916Z,400
2017-09-20T15:12:14.685Z,400
2017-09-20T15:12:28.126Z,400
2017-09-20T15:12:41.497Z,400
2017-09-20T15:12:53.264Z,400
2017-09-20T15:13:05.616Z,395
2017-09-20T15:13:18.991Z,400
2017-09-20T15:13:31.256Z,400
2017-09-20T15:13:44.644Z,400
2017-09-20T15:13:56.951Z,400
2017-09-20T15:14:08.736Z,400
2017-09-20T15:14:21.605Z,400
2017-09-20T15:14:35.006Z,395
2017-09-20T15:14:48.394Z,400
2017-09-20T15:15:01.718Z,400
2017-09-20T15:15:14.218Z,400
2017-09-20T15:15:27.543Z,400
2017-09-20T15:15:39.848Z,395
2017-09-20T15:15:53.290Z,405
2017-09-20T15:16:06.139Z,400
2017-09-20T15:16:18.426Z,400
2017-09-20T15:16:31.780Z,400
2017-09-20T15:16:45.164Z,400
2017-09-20T15:16:58.116Z,405
2017-09-20T15:17:12.883Z,405
2017-09-20T15:17:25.713Z,405
2017-09-20T15:17:38.574Z,405
2017-09-20T15:17:51.971Z,405
2017-09-20T15:18:04.316Z,405
2017-09-20T15:18:17.685Z,410
2017-09-20T15:18:30.028Z,405
2017-09-20T15:18:42.823Z,410
2017-09-20T15:18:56.223Z,405
2017-09-20T15:19:09.036Z,405
2017-09-20T15:19:21.351Z,405
2017-09-20T15:19:34.800Z,410
2017-09-20T15:19:47.646Z,405
2017-09-20T15:20:00.449Z,405
2017-09-20T15:20:13.858Z,405
2017-09-20T15:20:26.230Z,405
2017-09-20T15:20:39.315Z,410
2017-09-20T15:20:52.718Z,400
2017-09-20T15:21:05.029Z,400
2017-09-20T15:21:18.390Z,395
2017-09-20T15:21:31.767Z,400
2017-09-20T15:21:45.120Z,400
2017-09-20T15:21:57.986Z,395
2017-09-20T15:22:11.397Z,395
2017-09-20T15:22:24.245Z,395
2017-09-20T15:22:37.662Z,405
2017-09-20T15:22:50.532Z,400
2017-09-20T15:23:03.346Z,395
2017-09-20T15:23:16.693Z,395
2017-09-20T15:23:30.062Z,395
2017-09-20T15:23:42.918Z,400
2017-09-20T15:23:55.780Z,395
2017-09-20T15:24:09.167Z,395
2017-09-20T15:24:21.997Z,395
2017-09-20T15:24:34.874Z,395
2017-09-20T15:24:47.173Z,395
2017-09-20T15:25:00.566Z,400
2017-09-20T15:25:13.935Z,400
2017-09-20T15:25:27.326Z,400
2017-09-20T15:25:40.759Z,400
2017-09-20T15:25:54.328Z,400
2017-09-20T15:26:07.685Z,400
2017-09-20T15:26:21.092Z,400
2017-09-20T15:26:34.517Z,400
2017-09-20T15:26:47.397Z,400
2017-09-20T15:27:00.823Z,400
2017-09-20T15:27:13.650Z,400
2017-09-20T15:27:26.526Z,400
2017-09-20T15:27:39.377Z,400
2017-09-20T15:27:52.815Z,400
2017-09-20T15:28:05.707Z,400
2017-09-20T15:28:18.562Z,400
2017-09-20T15:28:31.897Z,400
2017-09-20T15:28:44.231Z,395
2017-09-20T15:28:57.580Z,395
2017-09-20T15:29:09.917Z,395
2017-09-20T15:29:23.238Z,400
2017-09-20T15:29:35.569Z,400
2017-09-20T15:29:47.394Z,400
2017-09-20T15:30:00.243Z,405
2017-09-20T15:30:13.079Z,400
2017-09-20T15:30:26.440Z,400
2017-09-20T15:30:39.849Z,395
2017-09-20T15:30:53.226Z,395
2017-09-20T15:31:06.085Z,400
2017-09-20T15:31:19.431Z,395
2017-09-20T15:31:32.846Z,395
2017-09-20T15:31:46.175Z,395
2017-09-20T15:31:59.027Z,395
2017-09-20T15:32:11.346Z,395
2017-09-20T15:32:23.662Z,395
2017-09-20T15:32:36.551Z,400
2017-09-20T15:32:49.933Z,400
2017-09-20T15:33:03.313Z,400
2017-09-20T15:33:16.668Z,400
2017-09-20T15:33:30.027Z,400
2017-09-20T15:33:42.896Z,400
2017-09-20T15:33:56.249Z,400
2017-09-20T15:34:09.108Z,405
2017-09-20T15:34:22.512Z,405
2017-09-20T15:34:34.851Z,400
2017-09-20T15:34:47.676Z,400
2017-09-20T15:35:00.535Z,400
2017-09-20T15:35:13.452Z,405
2017-09-20T15:35:26.267Z,405
2017-09-20T15:35:38.619Z,405
2017-09-20T15:35:51.574Z,405
2017-09-20T15:36:04.444Z,410
2017-09-20T15:36:17.287Z,405
2017-09-20T15:36:30.108Z,410
2017-09-20T15:36:43.452Z,405
2017-09-20T15:36:56.797Z,405
2017-09-20T15:37:09.616Z,405
2017-09-20T15:37:22.522Z,405
2017-09-20T15:37:35.917Z,405
2017-09-20T15:37:48.780Z,405
2017-09-20T15:38:01.636Z,400
2017-09-20T15:38:13.417Z,405
2017-09-20T15:38:26.765Z,400
2017-09-20T15:38:39.613Z,400
2017-09-20T15:38:52.451Z,405
2017-09-20T15:39:05.255Z,400
2017-09-20T15:39:18.065Z,400
2017-09-20T15:39:31.437Z,400
2017-09-20T15:39:43.740Z,395
2017-09-20T15:39:57.206Z,395
2017-09-20T15:40:09.562Z,395
2017-09-20T15:40:22.409Z,395
2017-09-20T15:40:35.797Z,390
2017-09-20T15:40:48.643Z,385
2017-09-20T15:41:01.468Z,385
2017-09-20T15:41:14.886Z,385
2017-09-20T15:41:27.752Z,380
2017-09-20T15:41:40.649Z,380
2017-09-20T15:41:53.968Z,385
2017-09-20T15:42:07.365Z,380
2017-09-20T15:42:20.263Z,380
2017-09-20T15:42:33.663Z,380
2017-09-20T15:42:47.043Z,380
2017-09-20T15:42:59.900Z,385
2017-09-20T15:43:12.244Z,385
2017-09-20T15:43:25.090Z,385
2017-09-20T15:43:38.434Z,390
2017-09-20T15:43:50.737Z,390
2017-09-20T15:44:03.598Z,390
2017-09-20T15:44:15.939Z,390
2017-09-20T15:44:28.773Z,395
2017-09-20T15:44:41.604Z,395
2017-09-20T15:44:54.951Z,395
2017-09-20T15:45:08.300Z,395
2017-09-20T15:45:21.183Z,395
2017-09-20T15:45:34.570Z,395
2017-09-20T15:45:47.969Z,395
2017-09-20T15:46:01.387Z,400
2017-09-20T15:46:13.741Z,395
2017-09-20T15:46:27.107Z,395
2017-09-20T15:46:39.453Z,400
2017-09-20T15:46:51.834Z,395
2017-09-20T15:47:05.205Z,400
2017-09-20T15:47:18.070Z,405
2017-09-20T15:47:31.427Z,400
2017-09-20T15:47:44.805Z,400
2017-09-20T15:47:57.669Z,395
2017-09-20T15:48:09.430Z,395
2017-09-20T15:48:21.797Z,395
2017-09-20T15:48:35.165Z,395
2017-09-20T15:48:47.517Z,400
2017-09-20T15:48:59.812Z,405
2017-09-20T15:49:13.174Z,400
2017-09-20T15:49:26.574Z,400
2017-09-20T15:49:39.981Z,400
2017-09-20T15:49:52.319Z,400
2017-09-20T15:50:05.662Z,395
2017-09-20T15:50:19.025Z,395
2017-09-20T15:50:32.424Z,395
2017-09-20T15:50:45.305Z,390
2017-09-20T15:50:58.740Z,390
2017-09-20T15:51:12.148Z,390
2017-09-20T15:51:25.523Z,390
2017-09-20T15:51:38.907Z,390
2017-09-20T15:51:51.748Z,395
2017-09-20T15:52:04.579Z,395
2017-09-20T15:52:17.981Z,390
2017-09-20T15:52:31.416Z,390
2017-09-20T15:52:44.835Z,390
2017-09-20T15:52:57.631Z,390
2017-09-20T15:53:10.490Z,390
2017-09-20T15:53:23.317Z,390
2017-09-20T15:53:36.648Z,390
2017-09-20T15:53:49.520Z,390
2017-09-20T15:54:01.848Z,390
2017-09-20T15:54:15.243Z,390
2017-09-20T15:54:28.089Z,390
2017-09-20T15:54:41.486Z,390
2017-09-20T15:54:54.953Z,390
2017-09-20T15:55:07.832Z,390
2017-09-20T15:55:21.193Z,390
2017-09-20T15:55:34.575Z,385
2017-09-20T15:55:47.925Z,385
2017-09-20T15:56:00.809Z,385
2017-09-20T15:56:13.726Z,385
2017-09-20T15:56:26.553Z,385
2017-09-20T15:56:39.958Z,380
2017-09-20T15:56:53.329Z,380
2017-09-20T15:57:06.786Z,380
2017-09-20T15:57:20.063Z,380
2017-09-20T15:57:32.908Z,380
2017-09-20T15:57:45.247Z,380
2017-09-20T15:57:57.603Z,380
2017-09-20T15:58:10.381Z,380
2017-09-20T15:58:23.955Z,380
2017-09-20T15:58:37.361Z,380
2017-09-20T15:58:50.252Z,380
2017-09-20T15:59:03.131Z,380
2017-09-20T15:59:16.003Z,380
2017-09-20T15:59:29.398Z,380
2017-09-20T15:59:41.784Z,380
2017-09-20T15:59:54.658Z,380
2017-09-20T16:00:07.513Z,380
2017-09-20T16:00:20.370Z,385
2017-09-20T16:00:33.802Z,385
2017-09-20T16:00:47.131Z,385
2017-09-20T16:01:00.033Z,385
2017-09-20T16:01:12.905Z,385
2017-09-20T16:01:26.350Z,385
2017-09-20T16:01:39.790Z,385
2017-09-20T16:01:53.180Z,385
2017-09-20T16:02:05.984Z,385
2017-09-20T16:02:18.868Z,385
2017-09-20T16:02:31.662Z,385
2017-09-20T16:02:45.027Z,385
2017-09-20T16:02:57.847Z,385
2017-09-20T16:03:10.768Z,385
2017-09-20T16:03:23.609Z,385
2017-09-20T16:03:36.453Z,385
2017-09-20T16:03:49.881Z,390
2017-09-20T16:04:02.723Z,385
2017-09-20T16:04:16.098Z,390
2017-09-20T16:04:29.434Z,390
2017-09-20T16:04:41.819Z,390
2017-09-20T16:04:55.210Z,390
2017-09-20T16:05:08.043Z,390
2017-09-20T16:05:21.389Z,390
2017-09-20T16:05:34.827Z,385
2017-09-20T16:05:47.624Z,385
2017-09-20T16:06:00.065Z,385
2017-09-20T16:06:12.445Z,385
2017-09-20T16:06:25.328Z,385
2017-09-20T16:06:38.732Z,385
2017-09-20T16:06:51.535Z,385
2017-09-20T16:07:04.374Z,385
2017-09-20T16:07:17.783Z,385
2017-09-20T16:07:30.118Z,385
2017-09-20T16:07:43.530Z,385
2017-09-20T16:07:56.359Z,385
2017-09-20T16:08:08.686Z,385
2017-09-20T16:08:21.530Z,380
2017-09-20T16:08:34.895Z,380
2017-09-20T16:08:47.771Z,380
2017-09-20T16:09:00.062Z,380
2017-09-20T16:09:11.843Z,380
2017-09-20T16:09:25.221Z,380
2017-09-20T16:09:38.075Z,380
2017-09-20T16:09:50.921Z,385
2017-09-20T16:10:04.263Z,380
2017-09-20T16:10:17.107Z,380
2017-09-20T16:10:30.508Z,375
2017-09-20T16:10:42.805Z,380
2017-09-20T16:10:56.208Z,380
2017-09-20T16:11:08.548Z,380
2017-09-20T16:11:21.449Z,380
2017-09-20T16:11:34.842Z,375
2017-09-20T16:11:48.240Z,380
2017-09-20T16:12:00.023Z,380
2017-09-20T16:12:11.846Z,380
2017-09-20T16:12:24.186Z,380
2017-09-20T16:12:37.552Z,380
2017-09-20T16:12:50.881Z,385
2017-09-20T16:13:04.864Z,385
2017-09-20T16:13:17.423Z,385
2017-09-20T16:13:30.484Z,385
2017-09-20T16:13:42.755Z,385
2017-09-20T16:13:56.175Z,385
2017-09-20T16:14:09.041Z,390
2017-09-20T16:14:21.373Z,390
2017-09-20T16:14:33.705Z,390
2017-09-20T16:14:46.985Z,390
2017-09-20T16:15:01.780Z,395
2017-09-20T16:15:14.632Z,395
2017-09-20T16:15:28.039Z,395
2017-09-20T16:15:40.904Z,395
2017-09-20T16:15:53.760Z,395
2017-09-20T16:16:07.115Z,395
2017-09-20T16:16:19.959Z,395
2017-09-20T16:16:32.245Z,395
2017-09-20T16:16:45.606Z,395
2017-09-20T16:16:57.955Z,395
2017-09-20T16:17:10.833Z,390
2017-09-20T16:17:24.226Z,390
2017-09-20T16:17:37.526Z,390
2017-09-20T16:17:50.325Z,390
2017-09-20T16:18:03.671Z,390
2017-09-20T16:18:16.531Z,385
2017-09-20T16:18:28.814Z,385
2017-09-20T16:18:40.813Z,385
2017-09-20T16:18:54.233Z,385
2017-09-20T16:19:07.098Z,385
2017-09-20T16:19:19.901Z,380
2017-09-20T16:19:33.289Z,380
2017-09-20T16:19:46.190Z,380
2017-09-20T16:19:59.670Z,380
2017-09-20T16:20:13.044Z,380
2017-09-20T16:20:25.902Z,380
2017-09-20T16:20:38.699Z,380
2017-09-20T16:20:52.093Z,385
2017-09-20T16:21:05.149Z,375
2017-09-20T16:21:18.604Z,375
2017-09-20T16:21:31.434Z,375
2017-09-20T16:21:44.830Z,375
2017-09-20T16:21:58.164Z,375
2017-09-20T16:22:10.490Z,375
2017-09-20T16:22:22.816Z,370
2017-09-20T16:22:35.663Z,370
2017-09-20T16:22:49.077Z,370
2017-09-20T16:23:02.403Z,370
2017-09-20T16:23:15.839Z,365
2017-09-20T16:23:29.237Z,365
2017-09-20T16:23:42.609Z,365
2017-09-20T16:23:56.017Z,360
2017-09-20T16:24:08.888Z,360
2017-09-20T16:24:21.750Z,360
2017-09-20T16:24:35.139Z,365
2017-09-20T16:24:48.597Z,365
2017-09-20T16:25:01.455Z,370
2017-09-20T16:25:14.293Z,365
2017-09-20T16:25:27.147Z,370
2017-09-20T16:25:40.530Z,370
2017-09-20T16:25:53.864Z,375
2017-09-20T16:26:07.229Z,375
2017-09-20T16:26:20.625Z,375
2017-09-20T16:26:33.929Z,375
2017-09-20T16:26:47.357Z,375
2017-09-20T16:27:00.222Z,375
2017-09-20T16:27:13.586Z,370
2017-09-20T16:27:26.972Z,375
2017-09-20T16:27:39.310Z,370
2017-09-20T16:27:52.683Z,370
2017-09-20T16:28:06.083Z,370
2017-09-20T16:28:19.512Z,370
2017-09-20T16:28:31.892Z,370
2017-09-20T16:28:44.763Z,375
2017-09-20T16:28:58.230Z,370
2017-09-20T16:29:11.692Z,370
2017-09-20T16:29:24.996Z,370
2017-09-20T16:29:38.398Z,375
2017-09-20T16:29:51.294Z,370
2017-09-20T16:30:04.151Z,375
2017-09-20T16:30:17.018Z,375
2017-09-20T16:30:28.828Z,370
2017-09-20T16:30:41.125Z,375
2017-09-20T16:30:54.404Z,375
2017-09-20T16:31:07.269Z,375
2017-09-20T16:31:20.069Z,370
2017-09-20T16:31:32.440Z,370
2017-09-20T16:31:45.265Z,375
2017-09-20T16:31:58.574Z,370
2017-09-20T16:32:10.321Z,370
2017-09-20T16:32:23.748Z,370
2017-09-20T16:32:36.607Z,370
2017-09-20T16:32:49.959Z,370
2017-09-20T16:33:03.344Z,370
2017-09-20T16:33:16.222Z,370
2017-09-20T16:33:29.075Z,370
2017-09-20T16:33:42.493Z,370
2017-09-20T16:33:55.919Z,370
2017-09-20T16:34:08.766Z,370
2017-09-20T16:34:21.634Z,370
2017-09-20T16:34:35.051Z,370
2017-09-20T16:34:48.491Z,375
2017-09-20T16:35:01.355Z,370
2017-09-20T16:35:14.740Z,370
2017-09-20T16:35:28.131Z,370
2017-09-20T16:35:41.001Z,370
2017-09-20T16:35:54.370Z,370
2017-09-20T16:36:07.745Z,370
2017-09-20T16:36:20.380Z,370
2017-09-20T16:36:33.243Z,370
2017-09-20T16:36:46.640Z,370
2017-09-20T16:37:00.005Z,370
2017-09-20T16:37:13.450Z,370
2017-09-20T16:37:26.297Z,370
2017-09-20T16:37:39.662Z,370
2017-09-20T16:37:52.547Z,370
2017-09-20T16:38:05.879Z,370
2017-09-20T16:38:18.218Z,370
2017-09-20T16:38:31.107Z,370
2017-09-20T16:38:43.986Z,370
2017-09-20T16:38:57.359Z,370
2017-09-20T16:39:10.684Z,365
2017-09-20T16:39:23.489Z,365
2017-09-20T16:39:36.829Z,365
2017-09-20T16:39:50.185Z,370
2017-09-20T16:40:03.062Z,365
2017-09-20T16:40:15.385Z,365
2017-09-20T16:40:28.809Z,365
2017-09-20T16:40:41.694Z,370
2017-09-20T16:40:55.082Z,370
2017-09-20T16:41:07.952Z,365
2017-09-20T16:41:20.394Z,365
2017-09-20T16:41:32.672Z,360
2017-09-20T16:41:45.490Z,360
2017-09-20T16:41:58.323Z,360
2017-09-20T16:42:11.200Z,360
2017-09-20T16:42:24.605Z,360
2017-09-20T16:42:36.932Z,360
2017-09-20T16:42:49.840Z,365
2017-09-20T16:43:03.310Z,370
2017-09-20T16:43:16.695Z,360
2017-09-20T16:43:28.979Z,360
2017-09-20T16:43:41.809Z,365
2017-09-20T16:43:54.693Z,365
2017-09-20T16:44:06.459Z,365
2017-09-20T16:44:18.219Z,365
2017-09-20T16:44:31.050Z,365
2017-09-20T16:44:43.882Z,365
2017-09-20T16:44:57.230Z,365
2017-09-20T16:45:10.141Z,365
2017-09-20T16:45:22.441Z,365
2017-09-20T16:45:35.343Z,365
2017-09-20T16:45:48.688Z,365
2017-09-20T16:46:02.051Z,365
2017-09-20T16:46:14.369Z,365
2017-09-20T16:46:27.194Z,360
2017-09-20T16:46:40.585Z,360
2017-09-20T16:46:52.914Z,365
2017-09-20T16:47:06.288Z,360
2017-09-20T16:47:19.147Z,360
2017-09-20T16:47:31.984Z,360
2017-09-20T16:47:44.243Z,360
2017-09-20T16:47:58.963Z,360
2017-09-20T16:48:11.871Z,355
2017-09-20T16:48:25.262Z,355
2017-09-20T16:48:38.689Z,355
2017-09-20T16:48:51.552Z,355
2017-09-20T16:49:04.381Z,355
2017-09-20T16:49:17.754Z,355
2017-09-20T16:49:31.138Z,355
2017-09-20T16:49:43.990Z,355
2017-09-20T16:49:56.865Z,355
2017-09-20T16:50:09.753Z,355
2017-09-20T16:50:23.129Z,355
2017-09-20T16:50:36.007Z,355
2017-09-20T16:50:48.867Z,355
2017-09-20T16:51:01.710Z,355
2017-09-20T16:51:14.549Z,355
2017-09-20T16:51:27.698Z,355
2017-09-20T16:51:41.078Z,355
2017-09-20T16:51:53.381Z,355
2017-09-20T16:52:06.245Z,355
2017-09-20T16:52:19.649Z,350
2017-09-20T16:52:32.503Z,355
2017-09-20T16:52:45.362Z,350
2017-09-20T16:52:58.706Z,350
2017-09-20T16:53:11.600Z,350
2017-09-20T16:53:23.987Z,345
2017-09-20T16:53:37.431Z,350
2017-09-20T16:53:49.768Z,345
2017-09-20T16:54:03.132Z,345
2017-09-20T16:54:15.474Z,345
2017-09-20T16:54:28.856Z,345
2017-09-20T16:54:42.293Z,350
2017-09-20T16:54:55.181Z,345
2017-09-20T16:55:08.537Z,345
2017-09-20T16:55:20.877Z,350
2017-09-20T16:55:33.960Z,345
2017-09-20T16:55:47.346Z,350
2017-09-20T16:55:59.730Z,355
2017-09-20T16:56:13.148Z,355
2017-09-20T16:56:26.183Z,360
2017-09-20T16:56:39.040Z,360
2017-09-20T16:56:52.407Z,360
2017-09-20T16:57:05.289Z,365
2017-09-20T16:57:18.185Z,360
2017-09-20T16:57:31.488Z,360
2017-09-20T16:57:43.815Z,360
2017-09-20T16:57:57.293Z,365
2017-09-20T16:58:09.595Z,365
2017-09-20T16:58:22.994Z,365
2017-09-20T16:58:36.407Z,365
2017-09-20T16:58:49.791Z,365
2017-09-20T16:59:03.234Z,365
2017-09-20T16:59:16.574Z,365
2017-09-20T16:59:29.983Z,370
2017-09-20T16:59:43.305Z,365
2017-09-20T16:59:56.656Z,365
2017-09-20T17:00:08.999Z,365
2017-09-20T17:00:21.896Z,365
2017-09-20T17:00:35.289Z,365
2017-09-20T17:00:48.666Z,365
2017-09-20T17:01:01.041Z,365
2017-09-20T17:01:14.404Z,365
2017-09-20T17:01:27.273Z,365
2017-09-20T17:01:40.137Z,365
2017-09-20T17:01:53.514Z,365
2017-09-20T17:02:06.896Z,365
2017-09-20T17:02:20.336Z,360
2017-09-20T17:02:31.551Z,365
2017-09-20T17:02:44.983Z,365
2017-09-20T17:02:58.316Z,365
2017-09-20T17:03:11.169Z,365
2017-09-20T17:03:24.027Z,365
2017-09-20T17:03:37.400Z,365
2017-09-20T17:03:50.760Z,360
2017-09-20T17:04:04.116Z,360
2017-09-20T17:04:16.974Z,355
2017-09-20T17:04:29.850Z,355
2017-09-20T17:04:42.733Z,360
2017-09-20T17:04:55.597Z,355
2017-09-20T17:05:07.913Z,355
2017-09-20T17:05:20.792Z,355
2017-09-20T17:05:33.156Z,355
2017-09-20T17:05:46.037Z,355
2017-09-20T17:05:59.455Z,355
2017-09-20T17:06:12.802Z,355
2017-09-20T17:06:26.186Z,355
2017-09-20T17:06:39.020Z,355
2017-09-20T17:06:51.850Z,355
2017-09-20T17:07:05.242Z,355
2017-09-20T17:07:18.142Z,355
2017-09-20T17:07:31.515Z,355
2017-09-20T17:07:43.886Z,355
2017-09-20T17:07:56.771Z,355
2017-09-20T17:08:10.149Z,355
2017-09-20T17:08:23.034Z,360
2017-09-20T17:08:36.415Z,350
2017-09-20T17:08:49.298Z,350
2017-09-20T17:09:02.191Z,350
2017-09-20T17:09:15.601Z,350
2017-09-20T17:09:28.984Z,355
2017-09-20T17:09:41.291Z,350
2017-09-20T17:09:54.639Z,350
2017-09-20T17:10:08.016Z,350
2017-09-20T17:10:20.855Z,350
2017-09-20T17:10:34.225Z,355
2017-09-20T17:10:47.149Z,355
2017-09-20T17:10:59.989Z,355
2017-09-20T17:11:13.339Z,355
2017-09-20T17:11:25.833Z,350
2017-09-20T17:11:39.177Z,355
2017-09-20T17:11:51.518Z,355
2017-09-20T17:12:03.869Z,355
2017-09-20T17:12:17.267Z,355
2017-09-20T17:12:30.148Z,355
2017-09-20T17:12:43.024Z,355
2017-09-20T17:12:55.345Z,355
2017-09-20T17:13:08.754Z,355
2017-09-20T17:13:22.131Z,355
2017-09-20T17:13:34.997Z,355
2017-09-20T17:13:47.355Z,355
2017-09-20T17:13:59.648Z,355
2017-09-20T17:14:12.487Z,355
2017-09-20T17:14:25.299Z,355
2017-09-20T17:14:37.612Z,355
2017-09-20T17:14:50.958Z,355
2017-09-20T17:15:04.354Z,355
2017-09-20T17:15:16.645Z,355
2017-09-20T17:15:30.042Z,355
2017-09-20T17:15:43.408Z,355
2017-09-20T17:15:56.305Z,355
2017-09-20T17:16:09.205Z,355
2017-09-20T17:16:22.599Z,350
2017-09-20T17:16:36.243Z,350
2017-09-20T17:16:49.588Z,350
2017-09-20T17:17:02.933Z,350
2017-09-20T17:17:16.336Z,350
2017-09-20T17:17:28.673Z,350
2017-09-20T17:17:41.580Z,350
2017-09-20T17:17:54.996Z,350
2017-09-20T17:18:08.365Z,350
2017-09-20T17:18:21.703Z,350
2017-09-20T17:18:34.542Z,350
2017-09-20T17:18:47.421Z,350
2017-09-20T17:19:00.847Z,350
2017-09-20T17:19:14.231Z,350
2017-09-20T17:19:27.105Z,350
2017-09-20T17:19:40.026Z,350
2017-09-20T17:19:52.375Z,350
2017-09-20T17:20:05.252Z,350
2017-09-20T17:20:18.109Z,350
2017-09-20T17:20:31.023Z,350
2017-09-20T17:20:43.828Z,350
2017-09-20T17:20:57.169Z,350
2017-09-20T17:21:10.560Z,350
2017-09-20T17:21:23.465Z,350
2017-09-20T17:21:36.600Z,350
2017-09-20T17:21:49.428Z,350
2017-09-20T17:22:02.802Z,350
2017-09-20T17:22:15.673Z,350
2017-09-20T17:22:28.545Z,350
2017-09-20T17:22:41.404Z,350
2017-09-20T17:22:54.268Z,350
2017-09-20T17:23:07.638Z,345
2017-09-20T17:23:20.983Z,350
2017-09-20T17:23:34.337Z,345
2017-09-20T17:23:47.182Z,345
2017-09-20T17:24:00.577Z,350
2017-09-20T17:24:12.918Z,350
2017-09-20T17:24:25.796Z,350
2017-09-20T17:24:38.091Z,350
2017-09-20T17:24:50.443Z,345
2017-09-20T17:25:03.845Z,345
2017-09-20T17:25:16.738Z,345
2017-09-20T17:25:29.578Z,345
2017-09-20T17:25:42.993Z,345
2017-09-20T17:25:56.303Z,345
2017-09-20T17:26:08.628Z,345
2017-09-20T17:26:22.029Z,350
2017-09-20T17:26:35.467Z,345
2017-09-20T17:26:47.790Z,340
2017-09-20T17:27:00.623Z,340
2017-09-20T17:27:13.518Z,345
2017-09-20T17:27:26.393Z,340
2017-09-20T17:27:39.799Z,340
2017-09-20T17:27:52.352Z,335
2017-09-20T17:28:04.674Z,335
2017-09-20T17:28:18.039Z,345
2017-09-20T17:28:31.415Z,345
2017-09-20T17:28:43.749Z,345
2017-09-20T17:28:56.009Z,340
2017-09-20T17:29:08.866Z,340
2017-09-20T17:29:22.220Z,340
2017-09-20T17:29:35.093Z,345
2017-09-20T17:29:47.973Z,345
2017-09-20T17:30:00.784Z,345
2017-09-20T17:30:14.137Z,345
2017-09-20T17:30:25.942Z,345
2017-09-20T17:30:38.845Z,350
2017-09-20T17:30:51.746Z,345
2017-09-20T17:31:04.593Z,345
2017-09-20T17:31:18.019Z,345
2017-09-20T17:31:30.837Z,345
2017-09-20T17:31:44.227Z,345
2017-09-20T17:31:57.021Z,345
2017-09-20T17:32:09.378Z,345
2017-09-20T17:32:22.256Z,345
2017-09-20T17:32:35.091Z,345
2017-09-20T17:32:47.973Z,345
2017-09-20T17:33:00.342Z,350
2017-09-20T17:33:13.216Z,345
2017-09-20T17:33:26.023Z,350
2017-09-20T17:33:38.355Z,345
2017-09-20T17:33:51.229Z,345
2017-09-20T17:34:04.050Z,340
2017-09-20T17:34:17.397Z,340
2017-09-20T17:34:30.213Z,340
2017-09-20T17:34:43.603Z,340
2017-09-20T17:34:56.448Z,340
2017-09-20T17:35:09.278Z,340
2017-09-20T17:35:22.150Z,335
2017-09-20T17:35:34.484Z,335
2017-09-20T17:35:48.516Z,335
2017-09-20T17:36:02.373Z,335
2017-09-20T17:36:15.211Z,335
2017-09-20T17:36:28.045Z,335
2017-09-20T17:36:41.412Z,335
2017-09-20T17:36:54.821Z,335
2017-09-20T17:37:08.191Z,340
2017-09-20T17:37:21.611Z,335
2017-09-20T17:37:34.952Z,335
2017-09-20T17:37:48.344Z,340
2017-09-20T17:38:01.796Z,335
2017-09-20T17:38:14.089Z,335
2017-09-20T17:38:26.990Z,340
2017-09-20T17:38:39.299Z,340
2017-09-20T17:38:52.160Z,335
2017-09-20T17:39:04.460Z,340
2017-09-20T17:39:17.313Z,335
2017-09-20T17:39:29.614Z,340
2017-09-20T17:39:41.969Z,335
2017-09-20T17:39:54.823Z,335
2017-09-20T17:40:08.194Z,335
2017-09-20T17:40:21.574Z,335
2017-09-20T17:40:34.971Z,335
2017-09-20T17:40:47.866Z,335
2017-09-20T17:41:00.193Z,330
2017-09-20T17:41:13.040Z,330
2017-09-20T17:41:26.433Z,330
2017-09-20T17:41:39.823Z,325
2017-09-20T17:41:52.216Z,330
2017-09-20T17:42:05.046Z,330
2017-09-20T17:42:18.440Z,325
2017-09-20T17:42:31.776Z,325
2017-09-20T17:42:45.164Z,325
2017-09-20T17:42:58.552Z,325
2017-09-20T17:43:11.432Z,325
2017-09-20T17:43:24.837Z,325
2017-09-20T17:43:38.247Z,325
2017-09-20T17:43:51.639Z,325
2017-09-20T17:44:03.424Z,325
2017-09-20T17:44:16.793Z,325
2017-09-20T17:44:29.129Z,325
2017-09-20T17:44:41.977Z,330
2017-09-20T17:44:54.277Z,330
2017-09-20T17:45:07.072Z,330
2017-09-20T17:45:19.927Z,335
2017-09-20T17:45:32.794Z,330
2017-09-20T17:45:45.093Z,335
2017-09-20T17:45:58.472Z,335
2017-09-20T17:46:11.387Z,335
2017-09-20T17:46:24.689Z,335
2017-09-20T17:46:37.774Z,330
2017-09-20T17:46:50.097Z,335
2017-09-20T17:47:03.490Z,330
2017-09-20T17:47:15.849Z,330
2017-09-20T17:47:29.231Z,330
2017-09-20T17:47:42.118Z,330
2017-09-20T17:47:55.007Z,325
2017-09-20T17:48:07.881Z,330
2017-09-20T17:48:20.759Z,330
2017-09-20T17:48:34.093Z,330
2017-09-20T17:48:46.455Z,325
2017-09-20T17:48:59.285Z,325
2017-09-20T17:49:12.119Z,325
2017-09-20T17:49:25.514Z,325
2017-09-20T17:49:38.317Z,330
2017-09-20T17:49:51.109Z,330
2017-09-20T17:50:04.496Z,330
2017-09-20T17:50:16.835Z,335
2017-09-20T17:50:29.184Z,330
2017-09-20T17:50:42.039Z,335
2017-09-20T17:50:54.362Z,330
2017-09-20T17:51:07.750Z,325
2017-09-20T17:51:21.087Z,330
2017-09-20T17:51:33.707Z,330
2017-09-20T17:51:46.556Z,330
2017-09-20T17:51:59.891Z,325